Time;durP1;ratioP1;P1;durP2;ratioP2;P2;SDS_P1;SDS_P2;PMS_P1;PMS_P2;Temp;Humidity;BMP_temperature;BMP_pressure;BME280_temperature;BME280_humidity;BME280_pressure;Samples;Min_cycle;Max_cycle;Signal;HPM_P1;HPM_P2
2023/07/02 00:01:46;;;;;;;0.20;0.20;;;;;;;17.57;79.88;98042.59;5009714;28;20485;-73
2023/07/02 00:04:16;;;;;;;0.22;0.22;;;;;;;17.51;80.22;98032.22;5023637;28;20808;-74
2023/07/02 00:06:43;;;;;;;0.20;0.20;;;;;;;17.50;80.30;98041.66;5023575;28;20076;-73
2023/07/02 00:09:10;;;;;;;0.10;0.10;;;;;;;17.44;80.19;98030.88;5005181;28;20049;-74
2023/07/02 00:11:37;;;;;;;0.20;0.20;;;;;;;17.44;80.70;98039.19;5023678;28;20041;-73
2023/07/02 00:14:05;;;;;;;0.20;0.20;;;;;;;17.38;80.76;98037.06;5026583;28;20045;-74
2023/07/02 00:16:31;;;;;;;0.20;0.20;;;;;;;17.35;81.40;98032.28;5024801;28;20596;-75
2023/07/02 00:18:59;;;;;;;0.20;0.20;;;;;;;17.28;81.58;98028.22;5027162;28;20164;-74
2023/07/02 00:21:27;;;;;;;0.20;0.20;;;;;;;17.24;81.75;98038.38;5021991;28;20046;-74
2023/07/02 00:23:56;;;;;;;0.20;0.20;;;;;;;17.22;82.41;98042.66;5014457;28;20041;-75
2023/07/02 00:26:24;;;;;;;0.20;0.20;;;;;;;17.18;83.04;98052.84;4999464;28;20136;-74
2023/07/02 00:28:50;;;;;;;0.20;0.20;;;;;;;17.13;82.87;98054.72;5016755;28;20071;-74
2023/07/02 00:31:18;;;;;;;0.22;0.20;;;;;;;17.10;83.30;98043.63;5021482;28;20045;-75
2023/07/02 00:33:44;;;;;;;0.20;0.20;;;;;;;17.04;83.59;98043.09;5018817;28;20069;-74
2023/07/02 00:36:14;;;;;;;0.20;0.20;;;;;;;17.00;84.00;98051.28;5018818;28;20045;-74
2023/07/02 00:38:41;;;;;;;0.20;0.20;;;;;;;16.99;84.06;98043.34;5023389;28;20528;-74
2023/07/02 00:41:07;;;;;;;0.20;0.20;;;;;;;16.91;84.40;98042.38;5024862;28;20045;-74
2023/07/02 00:43:33;;;;;;;0.20;0.20;;;;;;;16.87;85.35;98047.81;4994322;28;20069;-74
2023/07/02 00:46:00;;;;;;;0.20;0.20;;;;;;;16.82;85.34;98050.84;4993302;28;20747;-74
2023/07/02 00:48:29;;;;;;;0.20;0.20;;;;;;;16.81;85.89;98057.53;5023988;28;20520;-74
2023/07/02 00:50:56;;;;;;;0.20;0.20;;;;;;;16.80;86.37;98053.16;5024651;28;20073;-75
2023/07/02 00:53:23;;;;;;;0.20;0.20;;;;;;;16.77;86.15;98062.19;5007561;28;20049;-75
2023/07/02 00:55:49;;;;;;;0.20;0.20;;;;;;;16.77;86.42;98061.34;5009140;28;20437;-75
2023/07/02 00:58:16;;;;;;;0.20;0.20;;;;;;;16.76;86.70;98057.00;5024612;28;20048;-74
2023/07/02 01:00:42;;;;;;;0.20;0.20;;;;;;;16.73;87.18;98061.31;5026613;28;20049;-75
2023/07/02 01:03:09;;;;;;;0.20;0.20;;;;;;;16.70;87.17;98065.56;5024236;28;20049;-75
2023/07/02 01:05:36;;;;;;;0.20;0.20;;;;;;;16.65;87.44;98065.03;5025694;28;20049;-74
2023/07/02 01:08:02;;;;;;;0.20;0.20;;;;;;;16.68;88.19;98064.31;5025424;28;20072;-74
2023/07/02 01:10:30;;;;;;;0.20;0.20;;;;;;;16.62;87.77;98068.50;5026161;28;20060;-74
2023/07/02 01:12:59;;;;;;;0.20;0.20;;;;;;;16.65;87.89;98078.81;5024774;28;20081;-74
2023/07/02 01:15:25;;;;;;;0.20;0.20;;;;;;;16.63;88.45;98072.88;5022993;28;20053;-73
2023/07/02 01:17:52;;;;;;;0.20;0.20;;;;;;;16.58;88.58;98071.19;5026526;28;20509;-73
2023/07/02 01:20:21;;;;;;;0.20;0.20;;;;;;;16.58;88.50;98069.25;5007289;28;20056;-73
2023/07/02 01:22:52;;;;;;;0.30;0.30;;;;;;;16.58;88.62;98066.47;5007038;28;20145;-73
2023/07/02 01:25:18;;;;;;;0.20;0.20;;;;;;;16.58;89.11;98076.69;5007691;28;20041;-74
2023/07/02 01:27:46;;;;;;;0.17;0.17;;;;;;;16.55;89.00;98067.19;5023324;28;20069;-74
2023/07/02 01:30:13;;;;;;;0.20;0.20;;;;;;;16.53;89.40;98074.22;5005642;28;20045;-73
2023/07/02 01:32:39;;;;;;;0.20;0.20;;;;;;;16.52;89.12;98067.09;4969976;28;20046;-74
2023/07/02 01:35:06;;;;;;;0.20;0.20;;;;;;;16.53;89.79;98071.47;5006637;28;20042;-73
2023/07/02 01:37:37;;;;;;;0.20;0.20;;;;;;;16.51;89.71;98069.03;5005789;28;20149;-73
2023/07/02 01:40:08;;;;;;;0.10;0.10;;;;;;;16.48;89.68;98066.22;5005524;28;20619;-73
2023/07/02 01:42:35;;;;;;;0.20;0.20;;;;;;;16.50;90.30;98070.22;4987713;28;20563;-74
2023/07/02 01:45:03;;;;;;;0.20;0.20;;;;;;;16.51;90.38;98077.31;5022323;28;20615;-73
2023/07/02 01:47:31;;;;;;;0.20;0.20;;;;;;;16.50;90.35;98072.19;5024002;28;20852;-75
2023/07/02 01:49:58;;;;;;;0.20;0.20;;;;;;;16.53;90.49;98079.72;5023360;28;20045;-74
2023/07/02 01:52:26;;;;;;;0.20;0.20;;;;;;;16.53;89.85;98083.28;4992121;28;20053;-74
2023/07/02 01:54:53;;;;;;;0.20;0.20;;;;;;;16.54;90.17;98073.84;5023856;28;20060;-74
2023/07/02 01:57:20;;;;;;;0.20;0.20;;;;;;;16.56;89.80;98081.78;5003647;28;20304;-74
2023/07/02 01:59:46;;;;;;;0.20;0.20;;;;;;;16.55;89.75;98089.25;5021095;28;20116;-74
2023/07/02 02:02:12;;;;;;;0.20;0.20;;;;;;;16.54;89.94;98095.91;5010263;28;20053;-74
2023/07/02 02:04:39;;;;;;;0.20;0.20;;;;;;;16.55;89.70;98092.03;5024211;28;20152;-75
2023/07/02 02:07:05;;;;;;;0.20;0.20;;;;;;;16.58;89.66;98088.53;5023488;28;20413;-74
2023/07/02 02:09:32;;;;;;;0.20;0.20;;;;;;;16.58;90.02;98079.47;5005821;28;20104;-74
2023/07/02 02:12:00;;;;;;;0.20;0.20;;;;;;;16.64;89.94;98085.50;5010451;28;20049;-74
2023/07/02 02:14:26;;;;;;;0.20;0.20;;;;;;;16.68;89.36;98089.16;5022373;28;20049;-73
2023/07/02 02:16:53;;;;;;;0.20;0.20;;;;;;;16.67;89.20;98087.53;5009159;28;20077;-75
2023/07/02 02:19:19;;;;;;;0.20;0.20;;;;;;;16.71;89.59;98092.00;5021512;28;20045;-74
2023/07/02 02:21:46;;;;;;;0.20;0.20;;;;;;;16.72;89.42;98085.31;5025186;28;20049;-74
2023/07/02 02:24:13;;;;;;;0.20;0.20;;;;;;;16.73;89.03;98084.16;5022510;28;20399;-73
2023/07/02 02:26:39;;;;;;;0.30;0.20;;;;;;;16.78;89.23;98083.09;5022480;28;20503;-75
2023/07/02 02:29:07;;;;;;;0.25;0.25;;;;;;;16.81;88.97;98090.66;5022401;28;20067;-75
2023/07/02 02:31:34;;;;;;;0.20;0.20;;;;;;;16.84;88.56;98084.41;5005141;28;20542;-75
2023/07/02 02:34:03;;;;;;;0.20;0.20;;;;;;;16.86;88.36;98084.88;5022032;28;20050;-74
2023/07/02 02:36:29;;;;;;;0.20;0.20;;;;;;;16.89;88.54;98075.06;5022340;28;20533;-75
2023/07/02 02:38:55;;;;;;;0.20;0.20;;;;;;;16.93;87.92;98083.44;5025181;28;20061;-75
2023/07/02 02:41:22;;;;;;;0.20;0.20;;;;;;;16.98;87.77;98077.63;5003268;28;20137;-75
2023/07/02 02:43:52;;;;;;;0.20;0.20;;;;;;;17.04;87.63;98078.16;5005253;28;20136;-75
2023/07/02 02:46:22;;;;;;;0.20;0.20;;;;;;;17.13;87.29;98087.06;5022013;28;20582;-74
2023/07/02 02:48:49;;;;;;;0.20;0.20;;;;;;;17.19;86.68;98084.81;5008545;28;20050;-74
2023/07/02 02:51:15;;;;;;;0.30;0.30;;;;;;;17.12;86.74;98077.97;5011595;28;20046;-75
2023/07/02 02:53:42;;;;;;;0.20;0.20;;;;;;;17.18;86.59;98092.28;5025824;28;20053;-75
2023/07/02 02:56:09;;;;;;;0.20;0.20;;;;;;;17.22;86.28;98089.63;5025300;28;20179;-74
2023/07/02 02:58:35;;;;;;;0.20;0.20;;;;;;;17.23;86.16;98092.00;5026823;28;20054;-74
2023/07/02 03:01:03;;;;;;;0.20;0.20;;;;;;;17.17;86.03;98085.19;5024796;28;20075;-74
2023/07/02 03:03:34;;;;;;;0.30;0.30;;;;;;;17.19;86.47;98098.63;4995117;28;20065;-74
2023/07/02 03:06:05;;;;;;;0.30;0.30;;;;;;;17.27;86.22;98089.31;5009577;28;20072;-74
2023/07/02 03:08:34;;;;;;;0.20;0.20;;;;;;;17.42;85.65;98099.53;5024932;28;20049;-74
2023/07/02 03:11:00;;;;;;;0.20;0.20;;;;;;;17.55;84.45;98102.94;5010661;28;20088;-74
2023/07/02 03:13:26;;;;;;;0.20;0.20;;;;;;;17.66;84.07;98105.13;5025206;28;20049;-74
2023/07/02 03:15:52;;;;;;;0.30;0.30;;;;;;;17.76;83.65;98096.25;5027259;28;20128;-74
2023/07/02 03:18:19;;;;;;;0.20;0.20;;;;;;;17.76;82.97;98098.22;5008856;28;20053;-74
2023/07/02 03:20:47;;;;;;;0.20;0.20;;;;;;;17.62;83.04;98110.56;5025117;28;20053;-74
2023/07/02 03:23:13;;;;;;;0.20;0.20;;;;;;;17.51;83.79;98104.03;5025922;28;20586;-74
2023/07/02 03:25:39;;;;;;;0.20;0.20;;;;;;;17.56;83.78;98100.97;5024770;28;20053;-74
2023/07/02 03:28:05;;;;;;;0.20;0.20;;;;;;;17.61;83.38;98108.19;5024683;28;20060;-74
2023/07/02 03:30:31;;;;;;;0.20;0.20;;;;;;;17.67;83.32;98106.72;5026508;28;20053;-74
2023/07/02 03:32:58;;;;;;;0.20;0.20;;;;;;;17.75;83.00;98104.91;5026717;28;20054;-74
2023/07/02 03:35:24;;;;;;;0.20;0.20;;;;;;;17.79;82.34;98114.06;5026018;28;20052;-74
2023/07/02 03:37:52;;;;;;;0.20;0.20;;;;;;;17.81;81.83;98126.34;4992352;28;20103;-73
2023/07/02 03:40:18;;;;;;;0.20;0.20;;;;;;;17.73;81.83;98116.34;5021198;28;20091;-74
2023/07/02 03:42:45;;;;;;;0.20;0.20;;;;;;;17.72;82.30;98120.28;5008510;28;20049;-75
2023/07/02 03:45:11;;;;;;;0.20;0.20;;;;;;;17.79;81.57;98117.63;5026782;28;20060;-75
2023/07/02 03:47:37;;;;;;;0.20;0.20;;;;;;;17.75;81.59;98124.25;5027920;28;20053;-74
2023/07/02 03:50:04;;;;;;;0.20;0.20;;;;;;;17.62;81.72;98129.13;5006873;28;20520;-75
2023/07/02 03:52:31;;;;;;;;;;;;;;;17.53;82.17;98127.38;5027452;28;20049;-74
2023/07/02 03:54:59;;;;;;;0.20;0.20;;;;;;;17.41;83.12;98147.63;5026205;28;19932;-73
2023/07/02 03:57:26;;;;;;;0.20;0.20;;;;;;;17.31;83.67;98134.38;5008268;28;20045;-73
2023/07/02 03:59:53;;;;;;;0.22;0.22;;;;;;;17.41;83.87;98139.34;5025825;28;20049;-73
2023/07/02 04:02:20;;;;;;;0.20;0.20;;;;;;;17.49;83.12;98137.56;5008356;28;20517;-73
2023/07/02 04:04:46;;;;;;;0.20;0.20;;;;;;;17.51;82.67;98132.47;5024486;28;20084;-73
2023/07/02 04:07:12;;;;;;;0.30;0.30;;;;;;;17.52;82.33;98136.03;5026387;28;20053;-73
2023/07/02 04:09:39;;;;;;;0.20;0.20;;;;;;;17.52;82.03;98139.59;5028419;28;20140;-73
2023/07/02 04:12:08;;;;;;;0.30;0.30;;;;;;;17.58;81.82;98159.44;5025240;28;20038;-74
2023/07/02 04:14:34;;;;;;;0.20;0.20;;;;;;;17.55;81.48;98154.66;5027815;28;20469;-73
2023/07/02 04:17:03;;;;;;;0.20;0.20;;;;;;;17.54;81.67;98159.34;5024284;28;20053;-73
2023/07/02 04:19:29;;;;;;;0.20;0.20;;;;;;;17.69;81.47;98154.94;5023847;28;20049;-73
2023/07/02 04:21:55;;;;;;;0.20;0.20;;;;;;;17.80;80.46;98160.69;5024545;28;20524;-75
2023/07/02 04:24:22;;;;;;;0.20;0.20;;;;;;;17.83;79.63;98167.47;5025553;28;20061;-73
2023/07/02 04:26:48;;;;;;;0.20;0.20;;;;;;;17.85;79.43;98162.38;5026259;28;20403;-73
2023/07/02 04:29:16;;;;;;;0.20;0.20;;;;;;;17.89;79.58;98174.28;5007459;28;20602;-74
2023/07/02 04:31:42;;;;;;;0.28;0.28;;;;;;;17.90;79.61;98170.38;5022606;28;20052;-73
2023/07/02 04:34:08;;;;;;;0.20;0.20;;;;;;;17.93;78.70;98169.63;5025162;28;20045;-73
2023/07/02 04:36:34;;;;;;;0.30;0.30;;;;;;;17.90;78.28;98164.06;5025571;28;20048;-73
2023/07/02 04:39:00;;;;;;;0.30;0.30;;;;;;;17.86;77.95;98164.75;5026398;28;20096;-75
2023/07/02 04:41:27;;;;;;;0.25;0.25;;;;;;;17.95;77.42;98172.84;5023894;28;20049;-74
2023/07/02 04:43:53;;;;;;;0.30;0.30;;;;;;;18.05;77.05;98165.97;5026138;28;20114;-73
2023/07/02 04:46:21;;;;;;;0.30;0.30;;;;;;;18.24;76.34;98161.56;5024014;28;20053;-74
2023/07/02 04:48:47;;;;;;;0.20;0.20;;;;;;;18.50;75.20;98180.22;5007732;28;20153;-74
2023/07/02 04:51:14;;;;;;;0.30;0.30;;;;;;;18.68;74.13;98174.22;5025318;28;20558;-75
2023/07/02 04:53:40;;;;;;;0.30;0.30;;;;;;;18.91;73.52;98176.19;5027441;28;20056;-75
2023/07/02 04:56:07;;;;;;;0.30;0.30;;;;;;;19.18;72.31;98179.00;5026102;28;20071;-75
2023/07/02 04:58:33;;;;;;;0.30;0.30;;;;;;;19.32;71.85;98181.97;5026487;28;20053;-74
2023/07/02 05:00:59;;;;;;;0.30;0.30;;;;;;;19.52;71.12;98182.66;5024208;28;20072;-75
2023/07/02 05:03:29;;;;;;;0.20;0.20;;;;;;;19.40;69.97;98189.22;5009043;28;20057;-76
2023/07/02 05:05:55;;;;;;;0.30;0.30;;;;;;;19.34;70.64;98179.63;5023373;28;20048;-74
2023/07/02 05:08:21;;;;;;;0.30;0.30;;;;;;;19.62;70.51;98175.66;5026787;28;20041;-74
2023/07/02 05:10:48;;;;;;;0.30;0.30;;;;;;;19.89;69.55;98177.59;5022759;28;20860;-74
2023/07/02 05:13:14;;;;;;;0.20;0.20;;;;;;;19.93;69.00;98173.72;5023911;28;20073;-74
2023/07/02 05:15:40;;;;;;;0.30;0.30;;;;;;;19.90;69.00;98187.50;5023469;28;20113;-74
2023/07/02 05:18:06;;;;;;;0.30;0.30;;;;;;;19.83;68.96;98175.16;5026251;28;20416;-73
2023/07/02 05:20:34;;;;;;;0.30;0.30;;;;;;;19.78;69.08;98186.59;5008484;28;20041;-74
2023/07/02 05:23:00;;;;;;;0.30;0.30;;;;;;;19.76;69.61;98182.56;5025772;28;20046;-74
2023/07/02 05:25:26;;;;;;;0.30;0.30;;;;;;;19.76;69.05;98172.31;5007580;28;20579;-74
2023/07/02 05:27:53;;;;;;;0.30;0.30;;;;;;;19.78;68.90;98177.44;5001915;28;20161;-74
2023/07/02 05:30:19;;;;;;;0.30;0.30;;;;;;;19.76;68.99;98177.03;5023996;28;20055;-73
2023/07/02 05:32:45;;;;;;;0.37;0.37;;;;;;;19.93;68.91;98178.47;5009184;28;20049;-73
2023/07/02 05:35:11;;;;;;;0.30;0.30;;;;;;;20.10;67.92;98169.56;5027021;28;20061;-74
2023/07/02 05:37:39;;;;;;;0.30;0.30;;;;;;;20.13;67.74;98179.09;5026687;28;20049;-73
2023/07/02 05:40:07;;;;;;;0.30;0.30;;;;;;;20.04;67.96;98184.94;5008341;28;20049;-74
2023/07/02 05:42:33;;;;;;;0.30;0.30;;;;;;;19.86;68.17;98176.38;5024903;28;20083;-73
2023/07/02 05:45:00;;;;;;;0.20;0.20;;;;;;;19.67;68.02;98180.91;5005493;28;20501;-74
2023/07/02 05:47:26;;;;;;;0.30;0.30;;;;;;;19.58;68.97;98182.34;5023468;28;20487;-74
2023/07/02 05:49:52;;;;;;;0.30;0.30;;;;;;;19.48;69.30;98183.78;5024056;28;20297;-74
2023/07/02 05:52:18;;;;;;;0.30;0.30;;;;;;;19.44;69.70;98182.94;5008885;28;20525;-75
2023/07/02 05:54:46;;;;;;;0.20;0.20;;;;;;;19.40;69.98;98186.47;5026187;28;20463;-73
2023/07/02 05:57:12;;;;;;;0.30;0.30;;;;;;;19.44;69.95;98180.16;5022679;28;20137;-74
2023/07/02 05:59:38;;;;;;;0.30;0.30;;;;;;;19.50;69.20;98184.19;5025239;28;20045;-74
2023/07/02 06:02:05;;;;;;;0.30;0.30;;;;;;;19.51;69.02;98194.94;5023859;28;20041;-74
2023/07/02 06:04:31;;;;;;;0.30;0.30;;;;;;;19.63;68.76;98190.34;5023662;28;20057;-74
2023/07/02 06:06:57;;;;;;;0.30;0.30;;;;;;;19.78;67.95;98194.09;5006798;28;20111;-75
2023/07/02 06:09:23;;;;;;;0.30;0.30;;;;;;;19.87;67.73;98191.84;5023623;28;20424;-74
2023/07/02 06:11:51;;;;;;;0.30;0.30;;;;;;;20.02;67.37;98194.81;5024026;28;20664;-76
2023/07/02 06:14:18;;;;;;;0.30;0.30;;;;;;;20.09;67.34;98206.00;5023999;28;20076;-74
2023/07/02 06:16:44;;;;;;;0.30;0.30;;;;;;;20.16;66.42;98189.44;5006802;28;20076;-74
2023/07/02 06:19:10;;;;;;;0.30;0.30;;;;;;;20.12;65.97;98194.13;5021825;28;20528;-75
2023/07/02 06:21:36;;;;;;;0.30;0.30;;;;;;;20.16;65.50;98178.34;5021994;28;20441;-74
2023/07/02 06:24:03;;;;;;;0.30;0.30;;;;;;;20.51;64.88;98193.78;5030016;28;20115;-74
2023/07/02 06:26:31;;;;;;;0.30;0.30;;;;;;;20.67;64.02;98190.75;5028325;28;20132;-74
2023/07/02 06:28:59;;;;;;;0.30;0.30;;;;;;;20.82;64.22;98194.50;5011021;28;20144;-74
2023/07/02 06:31:25;;;;;;;0.30;0.30;;;;;;;20.65;64.60;98189.56;5026287;28;20088;-73
2023/07/02 06:33:51;;;;;;;0.30;0.30;;;;;;;20.76;63.43;98204.34;5027374;28;20132;-74
2023/07/02 06:36:18;;;;;;;0.30;0.30;;;;;;;20.86;62.18;98191.75;5006415;28;20038;-74
2023/07/02 06:38:44;;;;;;;;;;;;;;;21.11;61.73;98196.72;5007297;28;20073;-73
2023/07/02 06:41:11;;;;;;;0.30;0.30;;;;;;;21.34;60.44;98202.03;5022721;28;20428;-74
2023/07/02 06:43:37;;;;;;;0.30;0.30;;;;;;;21.47;59.99;98191.41;5028335;28;20081;-73
2023/07/02 06:46:05;;;;;;;0.30;0.30;;;;;;;21.51;59.77;98191.41;5029080;28;20049;-74
2023/07/02 06:48:31;;;;;;;0.30;0.30;;;;;;;21.47;59.80;98190.59;5026841;28;20053;-74
2023/07/02 06:50:57;;;;;;;0.40;0.40;;;;;;;21.73;58.72;98194.38;5010633;28;20316;-74
2023/07/02 06:53:23;;;;;;;0.30;0.30;;;;;;;22.12;57.78;98190.16;5027512;28;20046;-73
2023/07/02 06:55:49;;;;;;;0.28;0.28;;;;;;;22.19;56.27;98192.97;5026371;28;20041;-74
2023/07/02 06:58:16;;;;;;;0.30;0.30;;;;;;;21.92;55.95;98191.28;5024163;28;20071;-74
2023/07/02 07:00:42;;;;;;;0.30;0.30;;;;;;;21.49;57.38;98197.38;5006626;28;20057;-74
2023/07/02 07:03:09;;;;;;;0.38;0.38;;;;;;;21.60;56.27;98199.41;5026143;28;20060;-72
2023/07/02 07:05:35;;;;;;;0.30;0.30;;;;;;;21.76;55.52;98197.16;5024903;28;20045;-73
2023/07/02 07:08:01;;;;;;;0.30;0.30;;;;;;;21.86;55.90;98192.84;5024078;28;20064;-73
2023/07/02 07:10:33;;;;;;;0.30;0.30;;;;;;;22.12;55.37;98193.72;5025769;28;20041;-74
2023/07/02 07:13:00;;;;;;;0.40;0.40;;;;;;;22.31;55.00;98195.38;5003453;28;20099;-74
2023/07/02 07:15:27;;;;;;;0.40;0.40;;;;;;;22.68;54.60;98196.28;5006392;28;20567;-73
2023/07/02 07:17:54;;;;;;;0.30;0.30;;;;;;;23.22;52.18;98187.13;5006572;28;20046;-74
2023/07/02 07:20:22;;;;;;;0.30;0.30;;;;;;;23.11;50.29;98192.72;4988984;28;20042;-75
2023/07/02 07:22:48;;;;;;;0.30;0.30;;;;;;;22.75;50.91;98198.28;5007276;28;20257;-74
2023/07/02 07:25:14;;;;;;;0.30;0.30;;;;;;;22.08;52.91;98204.84;5008518;28;20559;-74
2023/07/02 07:27:41;;;;;;;0.22;0.22;;;;;;;21.77;54.66;98207.09;5029122;28;20049;-73
2023/07/02 07:30:08;;;;;;;0.30;0.30;;;;;;;21.81;54.08;98212.69;5009554;28;20052;-73
2023/07/02 07:32:34;;;;;;;0.30;0.30;;;;;;;22.14;53.37;98213.63;4995671;28;20096;-74
2023/07/02 07:35:00;;;;;;;0.30;0.30;;;;;;;22.43;52.36;98221.28;5022657;28;20527;-74
2023/07/02 07:37:28;;;;;;;0.30;0.30;;;;;;;22.36;52.48;98217.28;5026839;28;20424;-74
2023/07/02 07:39:54;;;;;;;0.20;0.20;;;;;;;22.14;53.43;98213.63;5007362;28;20137;-73
2023/07/02 07:42:20;;;;;;;0.30;0.30;;;;;;;22.02;53.88;98216.75;5028862;28;20072;-75
2023/07/02 07:44:46;;;;;;;0.30;0.30;;;;;;;21.85;54.40;98221.03;5026577;28;20046;-75
2023/07/02 07:47:21;;;;;;;0.30;0.30;;;;;;;21.75;54.69;98214.25;4955037;28;10001009;-75
2023/07/02 07:49:47;;;;;;;0.40;0.40;;;;;;;21.96;53.65;98214.34;5040315;28;20776;-75
2023/07/02 07:52:13;;;;;;;0.40;0.40;;;;;;;22.87;51.98;98208.25;5007079;28;20132;-75
2023/07/02 07:54:41;;;;;;;0.30;0.30;;;;;;;23.55;49.02;98215.78;5020954;28;20061;-75
2023/07/02 07:57:07;;;;;;;0.40;0.40;;;;;;;23.30;49.84;98208.28;5021342;28;20144;-75
2023/07/02 07:59:34;;;;;;;0.40;0.40;;;;;;;23.29;49.23;98215.06;5019042;28;20041;-75
2023/07/02 08:02:00;;;;;;;0.40;0.40;;;;;;;23.41;48.70;98211.06;5019282;28;20037;-75
2023/07/02 08:04:26;;;;;;;0.30;0.30;;;;;;;23.11;49.22;98220.59;5024426;28;20073;-75
2023/07/02 08:06:54;;;;;;;0.30;0.30;;;;;;;22.52;50.36;98210.56;5027355;28;20064;-75
2023/07/02 08:09:21;;;;;;;0.40;0.40;;;;;;;22.21;51.79;98207.28;5011551;28;20099;-75
2023/07/02 08:11:48;;;;;;;0.40;0.40;;;;;;;22.74;50.92;98205.84;5023089;28;20069;-75
2023/07/02 08:14:16;;;;;;;0.40;0.40;;;;;;;23.44;49.46;98213.03;5019083;28;20053;-75
2023/07/02 08:17:30;;;;;;;0.40;0.40;;;;;;;24.17;47.34;98201.69;5023582;28;20148;-75
2023/07/02 08:20:00;;;;;;;0.50;0.50;;;;;;;24.57;46.42;98219.00;5033745;28;20433;-74
2023/07/02 08:22:27;;;;;;;0.40;0.40;;;;;;;25.05;45.24;98219.50;5019421;28;20042;-75
2023/07/02 08:24:54;;;;;;;0.30;0.30;;;;;;;25.24;44.55;98197.81;5002108;28;20132;-74
2023/07/02 08:27:23;;;;;;;;;;;;;;;25.04;44.82;98203.94;5021635;28;20228;-75
2023/07/02 08:29:49;;;;;;;0.50;0.50;;;;;;;24.40;44.10;98203.16;5045195;28;20032;-74
2023/07/02 08:32:15;;;;;;;0.30;0.30;;;;;;;23.97;44.76;98204.94;5023287;28;20072;-74
2023/07/02 08:34:42;;;;;;;0.30;0.30;;;;;;;23.36;47.00;98211.47;5018899;28;20136;-75
2023/07/02 08:37:08;;;;;;;0.30;0.30;;;;;;;22.72;48.80;98213.03;5021309;28;20046;-75
2023/07/02 08:39:35;;;;;;;0.30;0.30;;;;;;;21.92;50.54;98216.31;5017935;28;20771;-75
2023/07/02 08:42:02;;;;;;;0.30;0.30;;;;;;;21.21;55.44;98209.91;5003749;28;20045;-74
2023/07/02 08:44:30;;;;;;;0.30;0.30;;;;;;;21.02;56.09;98213.72;5019488;28;20112;-75
2023/07/02 08:46:56;;;;;;;0.30;0.30;;;;;;;20.78;57.27;98215.06;5027181;28;20057;-74
2023/07/02 08:49:23;;;;;;;0.30;0.30;;;;;;;20.75;59.11;98222.16;5025538;28;20397;-76
2023/07/02 08:51:49;;;;;;;0.30;0.30;;;;;;;20.87;61.09;98212.00;5006122;28;20041;-76
2023/07/02 08:54:17;;;;;;;0.30;0.30;;;;;;;21.32;57.77;98212.75;5022322;28;20057;-76
2023/07/02 08:56:47;;;;;;;0.60;0.60;;;;;;;21.73;56.47;98214.63;5023288;28;20140;-76
2023/07/02 08:59:13;;;;;;;0.43;0.43;;;;;;;22.48;56.36;98218.94;5016392;28;20041;-76
2023/07/02 09:01:48;;;;;;;0.30;0.30;;;;;;;22.50;55.66;98208.22;5020659;28;20045;-76
2023/07/02 09:04:19;;;;;;;0.35;0.35;;;;;;;21.69;56.46;98211.03;5020166;28;20046;-76
2023/07/02 09:06:46;;;;;;;0.40;0.40;;;;;;;21.02;57.03;98210.16;5005986;28;20050;-77
2023/07/02 09:09:12;;;;;;;0.30;0.30;;;;;;;20.45;59.12;98216.72;5023404;28;20050;-76
2023/07/02 09:11:48;;;;;;;0.43;0.43;;;;;;;20.17;61.67;98210.47;5024546;28;20057;-75
2023/07/02 09:14:25;;;;;;;0.30;0.30;;;;;;;20.22;63.82;98224.00;5007364;28;20440;-75
2023/07/02 09:17:04;;;;;;;0.57;0.57;;;;;;;20.35;62.42;98216.19;5023205;28;20472;-76
2023/07/02 09:19:30;;;;;;;0.30;0.30;;;;;;;19.93;59.83;98225.63;5022502;28;20049;-74
2023/07/02 09:22:01;;;;;;;0.37;0.37;;;;;;;19.35;60.58;98228.31;5005385;28;20144;-74
2023/07/02 09:24:29;;;;;;;0.30;0.30;;;;;;;19.17;63.72;98232.78;5022900;28;20334;-74
2023/07/02 09:26:56;;;;;;;0.30;0.30;;;;;;;18.95;64.28;98221.34;5020634;28;20546;-73
2023/07/02 09:29:24;;;;;;;0.30;0.30;;;;;;;18.40;67.20;98230.63;4675481;28;9999925;-73
2023/07/02 09:31:50;;;;;;;0.30;0.30;;;;;;;18.23;68.37;98234.66;5019951;28;20048;-74
2023/07/02 09:34:18;;;;;;;0.30;0.30;;;;;;;18.24;67.65;98233.50;5022325;28;20073;-74
2023/07/02 09:36:46;;;;;;;0.30;0.30;;;;;;;18.26;68.17;98223.66;5007054;28;20049;-73
2023/07/02 09:39:14;;;;;;;0.30;0.30;;;;;;;18.22;67.81;98222.78;5021702;28;20138;-73
2023/07/02 09:41:45;;;;;;;0.40;0.40;;;;;;;18.33;69.78;98231.28;5019331;28;20065;-74
2023/07/02 09:44:13;;;;;;;0.60;0.60;;;;;;;18.40;70.34;98222.31;5019626;28;20513;-74
2023/07/02 09:46:46;;;;;;;0.60;0.60;;;;;;;19.16;69.31;98228.44;5026782;28;20528;-75
2023/07/02 09:49:16;;;;;;;0.40;0.40;;;;;;;19.92;66.16;98224.81;5024522;28;20069;-74
2023/07/02 09:51:45;;;;;;;0.30;0.30;;;;;;;20.33;62.65;98228.88;5023044;28;20052;-74
2023/07/02 09:54:12;;;;;;;0.35;0.35;;;;;;;20.25;59.71;98212.13;5022320;28;20141;-74
2023/07/02 09:56:39;;;;;;;0.30;0.30;;;;;;;20.50;57.14;98219.13;5022249;28;20053;-72
2023/07/02 09:59:05;;;;;;;0.40;0.40;;;;;;;20.73;56.03;98224.53;5023257;28;20050;-74
2023/07/02 10:01:32;;;;;;;0.50;0.50;;;;;;;21.33;54.94;98217.13;5020275;28;20531;-71
2023/07/02 10:03:58;;;;;;;0.45;0.40;;;;;;;21.69;52.17;98222.16;5025809;28;20128;-71
2023/07/02 10:06:24;;;;;;;0.30;0.30;;;;;;;21.42;53.29;98221.56;5023877;28;20045;-72
2023/07/02 10:08:55;;;;;;;0.32;0.32;;;;;;;21.29;53.28;98210.75;5022152;28;20053;-71
2023/07/02 10:11:36;;;;;;;0.30;0.30;;;;;;;21.62;51.39;98220.09;5024036;28;20045;-71
2023/07/02 10:14:02;;;;;;;0.50;0.50;;;;;;;21.43;50.23;98206.47;5005581;28;20073;-72
2023/07/02 10:16:31;;;;;;;0.53;0.53;;;;;;;21.78;50.34;98236.53;5026939;28;20048;-73
2023/07/02 10:19:09;;;;;;;0.65;0.47;;;;;;;22.44;48.96;98220.09;5017380;28;20399;-73
2023/07/02 10:21:35;;;;;;;0.45;0.45;;;;;;;22.71;51.76;98234.50;5013960;28;20742;-72
2023/07/02 10:24:11;;;;;;;0.50;0.50;;;;;;;22.57;55.64;98220.53;5022197;28;20048;-73
2023/07/02 10:26:37;;;;;;;0.50;0.50;;;;;;;22.56;54.16;98224.50;5020110;28;20053;-73
2023/07/02 10:29:03;;;;;;;0.60;0.60;;;;;;;21.99;55.28;98220.31;5022962;28;20117;-73
2023/07/02 10:31:30;;;;;;;0.60;0.60;;;;;;;22.21;53.64;98226.75;5004909;28;20064;-73
2023/07/02 10:33:56;;;;;;;0.40;0.40;;;;;;;21.96;55.18;98219.13;5003556;28;20386;-73
2023/07/02 10:36:23;;;;;;;1.33;1.23;;;;;;;22.05;54.22;98221.53;5023961;28;20053;-73
2023/07/02 10:38:50;;;;;;;0.40;0.40;;;;;;;22.02;54.54;98225.91;5023407;28;20050;-71
2023/07/02 10:41:27;;;;;;;0.30;0.30;;;;;;;20.50;59.00;98225.50;5027643;28;20168;-72
2023/07/02 10:43:53;;;;;;;0.30;0.30;;;;;;;19.62;62.63;98227.56;5025335;28;20530;-72
2023/07/02 10:46:23;;;;;;;0.20;0.20;;;;;;;19.22;63.48;98226.97;5024077;28;20045;-72
2023/07/02 10:48:52;;;;;;;0.30;0.30;;;;;;;18.64;66.87;98234.25;5023087;28;20521;-72
2023/07/02 10:51:19;;;;;;;0.30;0.30;;;;;;;18.46;69.12;98234.72;5006580;28;20045;-72
2023/07/02 10:53:45;;;;;;;0.30;0.30;;;;;;;18.31;69.57;98238.38;5005222;28;20132;-72
2023/07/02 10:56:16;;;;;;;0.30;0.30;;;;;;;18.14;71.28;98238.44;5023929;28;20042;-72
2023/07/02 10:58:44;;;;;;;0.30;0.30;;;;;;;18.14;72.07;98227.38;5020797;28;20057;-72
2023/07/02 11:01:10;;;;;;;0.30;0.30;;;;;;;18.20;73.37;98241.72;5020256;28;20052;-73
2023/07/02 11:03:36;;;;;;;0.30;0.30;;;;;;;18.38;72.41;98242.06;5024501;28;20057;-72
2023/07/02 11:06:03;;;;;;;0.50;0.50;;;;;;;19.20;72.16;98241.16;5020787;28;20069;-72
2023/07/02 11:08:35;;;;;;;1.00;1.00;;;;;;;19.76;68.59;98249.13;5021941;28;20104;-72
2023/07/02 11:11:06;;;;;;;0.40;0.40;;;;;;;21.02;65.52;98247.03;5026051;28;20073;-72
2023/07/02 11:13:32;;;;;;;0.40;0.40;;;;;;;20.88;61.99;98252.47;5023917;28;20520;-71
2023/07/02 11:16:00;;;;;;;1.10;1.10;;;;;;;20.63;60.44;98259.34;5022720;28;20571;-72
2023/07/02 11:18:31;;;;;;;0.50;0.50;;;;;;;21.42;57.76;98250.13;5028082;28;20305;-72
2023/07/02 11:20:58;;;;;;;1.00;1.00;;;;;;;22.06;53.62;98248.19;5026300;28;20060;-72
2023/07/02 11:23:25;;;;;;;1.00;1.00;;;;;;;22.99;51.31;98257.22;5024288;28;20128;-72
2023/07/02 11:25:56;;;;;;;1.00;1.00;;;;;;;24.01;48.14;98252.34;5024801;28;20053;-72
2023/07/02 11:28:22;;;;;;;0.80;0.80;;;;;;;25.09;46.18;98259.44;5025077;28;20065;-72
2023/07/02 11:30:48;;;;;;;0.40;0.40;;;;;;;25.66;44.14;98253.78;5027499;28;20095;-72
2023/07/02 11:33:16;;;;;;;0.40;0.40;;;;;;;24.39;44.23;98244.25;5027037;28;20529;-71
2023/07/02 11:35:45;;;;;;;0.68;0.68;;;;;;;24.01;46.72;98253.16;5023439;28;20111;-70